sensor_id;sensor_type;location;lat;lon;timestamp;P1;durP1;ratioP1;P2;durP2;ratioP2
16994;SDS011;8614;48.522;9.206;2023-02-21T03:01:26;10.97;;;9.97;;
16994;SDS011;8614;48.522;9.206;2023-02-21T03:04:09;11.43;;;10.40;;
16994;SDS011;8614;48.522;9.206;2023-02-21T03:06:58;10.87;;;9.87;;
16994;SDS011;8614;48.522;9.206;2023-02-21T03:09:33;11.20;;;10.20;;
16994;SDS011;8614;48.522;9.206;2023-02-21T03:12:07;10.83;;;9.90;;
16994;SDS011;8614;48.522;9.206;2023-02-21T03:14:42;10.27;;;9.33;;
16994;SDS011;8614;48.522;9.206;2023-02-21T03:17:17;11.07;;;10.17;;
16994;SDS011;8614;48.522;9.206;2023-02-21T03:19:48;11.23;;;10.33;;
16994;SDS011;8614;48.522;9.206;2023-02-21T03:22:19;10.77;;;9.80;;
16994;SDS011;8614;48.522;9.206;2023-02-21T03:24:51;10.07;;;9.30;;
16994;SDS011;8614;48.522;9.206;2023-02-21T03:27:20;10.27;;;9.33;;
16994;SDS011;8614;48.522;9.206;2023-02-21T03:29:57;10.00;;;9.10;;
16994;SDS011;8614;48.522;9.206;2023-02-21T03:32:30;10.03;;;9.23;;
16994;SDS011;8614;48.522;9.206;2023-02-21T03:35:00;10.20;;;9.40;;
16994;SDS011;8614;48.522;9.206;2023-02-21T03:37:29;10.30;;;9.30;;
16994;SDS011;8614;48.522;9.206;2023-02-21T03:39:58;10.10;;;9.30;;
16994;SDS011;8614;48.522;9.206;2023-02-21T03:42:26;10.17;;;9.27;;
16994;SDS011;8614;48.522;9.206;2023-02-21T03:44:53;10.27;;;9.37;;
16994;SDS011;8614;48.522;9.206;2023-02-21T03:47:21;10.07;;;9.23;;
16994;SDS011;8614;48.522;9.206;2023-02-21T03:49:49;11.17;;;10.13;;
16994;SDS011;8614;48.522;9.206;2023-02-21T03:52:16;10.13;;;9.33;;
16994;SDS011;8614;48.522;9.206;2023-02-21T03:54:43;10.37;;;9.40;;
16994;SDS011;8614;48.522;9.206;2023-02-21T03:57:14;12.87;;;9.87;;
16994;SDS011;8614;48.522;9.206;2023-02-21T03:59:44;10.23;;;9.43;;
16994;SDS011;8614;48.522;9.206;2023-02-21T04:02:12;10.20;;;9.33;;
16994;SDS011;8614;48.522;9.206;2023-02-21T04:04:39;10.67;;;9.67;;
16994;SDS011;8614;48.522;9.206;2023-02-21T04:07:10;10.47;;;9.57;;
16994;SDS011;8614;48.522;9.206;2023-02-21T04:09:37;10.63;;;9.60;;
16994;SDS011;8614;48.522;9.206;2023-02-21T04:12:06;10.87;;;9.93;;
16994;SDS011;8614;48.522;9.206;2023-02-21T04:14:36;10.47;;;9.50;;
16994;SDS011;8614;48.522;9.206;2023-02-21T04:17:03;10.53;;;9.60;;
16994;SDS011;8614;48.522;9.206;2023-02-21T04:19:30;10.47;;;9.57;;
16994;SDS011;8614;48.522;9.206;2023-02-21T04:21:57;10.83;;;9.80;;
16994;SDS011;8614;48.522;9.206;2023-02-21T04:24:26;10.40;;;9.60;;
16994;SDS011;8614;48.522;9.206;2023-02-21T04:26:54;10.00;;;9.30;;
16994;SDS011;8614;48.522;9.206;2023-02-21T04:29:22;10.73;;;9.73;;
16994;SDS011;8614;48.522;9.206;2023-02-21T04:31:49;10.40;;;9.53;;
16994;SDS011;8614;48.522;9.206;2023-02-21T04:34:17;10.00;;;9.20;;
16994;SDS011;8614;48.522;9.206;2023-02-21T04:36:45;11.10;;;10.00;;
16994;SDS011;8614;48.522;9.206;2023-02-21T04:39:12;10.67;;;9.87;;
16994;SDS011;8614;48.522;9.206;2023-02-21T04:41:40;9.90;;;9.10;;
16994;SDS011;8614;48.522;9.206;2023-02-21T04:44:08;11.27;;;10.10;;
16994;SDS011;8614;48.522;9.206;2023-02-21T04:46:35;11.03;;;10.13;;
16994;SDS011;8614;48.522;9.206;2023-02-21T04:49:01;10.27;;;9.47;;
16994;SDS011;8614;48.522;9.206;2023-02-21T04:51:28;10.40;;;9.70;;
16994;SDS011;8614;48.522;9.206;2023-02-21T04:53:55;10.23;;;9.50;;
16994;SDS011;8614;48.522;9.206;2023-02-21T04:56:23;10.63;;;9.80;;
16994;SDS011;8614;48.522;9.206;2023-02-21T04:58:52;10.53;;;9.63;;
16994;SDS011;8614;48.522;9.206;2023-02-21T05:01:20;10.87;;;9.93;;
16994;SDS011;8614;48.522;9.206;2023-02-21T05:03:47;10.53;;;9.73;;
16994;SDS011;8614;48.522;9.206;2023-02-21T05:06:17;11.03;;;10.10;;
16994;SDS011;8614;48.522;9.206;2023-02-21T05:08:45;10.90;;;10.10;;
16994;SDS011;8614;48.522;9.206;2023-02-21T05:11:12;10.40;;;9.60;;
16994;SDS011;8614;48.522;9.206;2023-02-21T05:13:38;10.27;;;9.57;;
16994;SDS011;8614;48.522;9.206;2023-02-21T05:16:07;10.53;;;9.73;;
16994;SDS011;8614;48.522;9.206;2023-02-21T05:18:34;10.70;;;9.90;;
16994;SDS011;8614;48.522;9.206;2023-02-21T05:21:02;10.47;;;9.70;;
16994;SDS011;8614;48.522;9.206;2023-02-21T05:23:29;10.70;;;9.80;;
16994;SDS011;8614;48.522;9.206;2023-02-21T05:26:05;10.33;;;9.50;;
16994;SDS011;8614;48.522;9.206;2023-02-21T05:28:33;10.90;;;9.90;;
16994;SDS011;8614;48.522;9.206;2023-02-21T05:31:01;10.30;;;9.60;;
16994;SDS011;8614;48.522;9.206;2023-02-21T05:33:30;10.57;;;9.77;;
16994;SDS011;8614;48.522;9.206;2023-02-21T05:35:58;11.80;;;10.57;;
16994;SDS011;8614;48.522;9.206;2023-02-21T05:38:25;11.67;;;10.77;;
16994;SDS011;8614;48.522;9.206;2023-02-21T05:40:52;11.43;;;10.33;;
16994;SDS011;8614;48.522;9.206;2023-02-21T05:43:19;11.33;;;10.40;;
16994;SDS011;8614;48.522;9.206;2023-02-21T05:45:46;13.40;;;10.70;;
16994;SDS011;8614;48.522;9.206;2023-02-21T05:48:12;11.63;;;10.60;;
16994;SDS011;8614;48.522;9.206;2023-02-21T05:50:41;10.90;;;10.20;;
16994;SDS011;8614;48.522;9.206;2023-02-21T05:53:09;11.53;;;10.53;;
16994;SDS011;8614;48.522;9.206;2023-02-21T05:55:35;11.67;;;10.73;;
16994;SDS011;8614;48.522;9.206;2023-02-21T05:58:03;11.97;;;10.97;;
16994;SDS011;8614;48.522;9.206;2023-02-21T06:00:30;12.30;;;11.30;;
16994;SDS011;8614;48.522;9.206;2023-02-21T06:02:57;12.77;;;11.40;;
16994;SDS011;8614;48.522;9.206;2023-02-21T06:05:23;12.40;;;11.40;;
16994;SDS011;8614;48.522;9.206;2023-02-21T06:07:52;13.20;;;11.93;;
16994;SDS011;8614;48.522;9.206;2023-02-21T06:10:19;11.83;;;10.93;;
16994;SDS011;8614;48.522;9.206;2023-02-21T06:12:46;12.03;;;11.07;;
16994;SDS011;8614;48.522;9.206;2023-02-21T06:15:13;12.80;;;11.70;;
16994;SDS011;8614;48.522;9.206;2023-02-21T06:17:39;12.13;;;11.20;;
16994;SDS011;8614;48.522;9.206;2023-02-21T06:20:07;12.50;;;11.50;;
16994;SDS011;8614;48.522;9.206;2023-02-21T06:22:35;13.47;;;12.27;;
16994;SDS011;8614;48.522;9.206;2023-02-21T06:25:05;13.53;;;12.43;;
16994;SDS011;8614;48.522;9.206;2023-02-21T06:27:32;13.90;;;12.70;;
16994;SDS011;8614;48.522;9.206;2023-02-21T06:29:59;13.80;;;12.50;;
16994;SDS011;8614;48.522;9.206;2023-02-21T06:32:26;13.20;;;12.10;;
16994;SDS011;8614;48.522;9.206;2023-02-21T06:34:53;13.50;;;12.20;;
16994;SDS011;8614;48.522;9.206;2023-02-21T06:37:20;13.93;;;12.43;;
16994;SDS011;8614;48.522;9.206;2023-02-21T06:39:47;14.03;;;12.73;;
16994;SDS011;8614;48.522;9.206;2023-02-21T06:42:15;16.57;;;13.20;;
16994;SDS011;8614;48.522;9.206;2023-02-21T06:44:44;13.67;;;12.30;;
16994;SDS011;8614;48.522;9.206;2023-02-21T06:47:11;12.93;;;11.83;;
16994;SDS011;8614;48.522;9.206;2023-02-21T06:49:38;11.90;;;11.00;;
16994;SDS011;8614;48.522;9.206;2023-02-21T06:52:05;11.90;;;10.90;;
16994;SDS011;8614;48.522;9.206;2023-02-21T06:54:32;12.23;;;11.33;;
16994;SDS011;8614;48.522;9.206;2023-02-21T06:56:59;12.70;;;11.60;;
16994;SDS011;8614;48.522;9.206;2023-02-21T06:59:28;12.10;;;11.20;;
16994;SDS011;8614;48.522;9.206;2023-02-21T07:01:55;12.17;;;11.27;;
16994;SDS011;8614;48.522;9.206;2023-02-21T07:04:22;11.63;;;10.77;;
16994;SDS011;8614;48.522;9.206;2023-02-21T07:06:50;11.93;;;10.93;;
16994;SDS011;8614;48.522;9.206;2023-02-21T07:09:17;11.70;;;10.83;;
16994;SDS011;8614;48.522;9.206;2023-02-21T07:11:44;11.47;;;10.57;;
16994;SDS011;8614;48.522;9.206;2023-02-21T07:14:11;10.67;;;9.87;;
16994;SDS011;8614;48.522;9.206;2023-02-21T07:16:40;11.40;;;10.33;;
16994;SDS011;8614;48.522;9.206;2023-02-21T07:19:07;11.80;;;10.90;;
16994;SDS011;8614;48.522;9.206;2023-02-21T07:21:34;12.17;;;11.10;;
16994;SDS011;8614;48.522;9.206;2023-02-21T07:24:01;11.60;;;10.60;;
16994;SDS011;8614;48.522;9.206;2023-02-21T07:26:28;11.63;;;10.83;;
16994;SDS011;8614;48.522;9.206;2023-02-21T07:28:54;11.17;;;10.47;;
16994;SDS011;8614;48.522;9.206;2023-02-21T07:31:21;11.27;;;10.53;;
16994;SDS011;8614;48.522;9.206;2023-02-21T07:33:50;11.60;;;10.60;;
16994;SDS011;8614;48.522;9.206;2023-02-21T07:36:17;11.47;;;10.60;;
16994;SDS011;8614;48.522;9.206;2023-02-21T07:38:44;11.43;;;10.53;;
16994;SDS011;8614;48.522;9.206;2023-02-21T07:41:12;11.43;;;10.63;;
16994;SDS011;8614;48.522;9.206;2023-02-21T07:43:40;10.93;;;10.23;;
16994;SDS011;8614;48.522;9.206;2023-02-21T07:46:08;11.93;;;10.93;;
16994;SDS011;8614;48.522;9.206;2023-02-21T07:48:36;15.57;;;13.97;;
16994;SDS011;8614;48.522;9.206;2023-02-21T07:51:05;17.67;;;15.10;;
16994;SDS011;8614;48.522;9.206;2023-02-21T07:53:31;13.20;;;12.00;;
16994;SDS011;8614;48.522;9.206;2023-02-21T07:55:58;10.50;;;9.40;;
16994;SDS011;8614;48.522;9.206;2023-02-21T07:58:25;10.67;;;9.80;;
16994;SDS011;8614;48.522;9.206;2023-02-21T08:00:52;12.00;;;11.03;;
16994;SDS011;8614;48.522;9.206;2023-02-21T08:03:19;11.43;;;10.53;;
16994;SDS011;8614;48.522;9.206;2023-02-21T08:05:46;6.73;;;4.60;;
16994;SDS011;8614;48.522;9.206;2023-02-21T08:08:15;5.23;;;3.83;;
16994;SDS011;8614;48.522;9.206;2023-02-21T08:10:42;7.13;;;4.27;;
16994;SDS011;8614;48.522;9.206;2023-02-21T08:13:08;8.07;;;7.20;;
16994;SDS011;8614;48.522;9.206;2023-02-21T08:15:35;7.13;;;6.43;;
16994;SDS011;8614;48.522;9.206;2023-02-21T08:18:02;13.97;;;12.87;;
16994;SDS011;8614;48.522;9.206;2023-02-21T08:20:29;11.80;;;4.17;;
16994;SDS011;8614;48.522;9.206;2023-02-21T08:22:56;5.60;;;3.80;;
16994;SDS011;8614;48.522;9.206;2023-02-21T08:25:24;10.50;;;9.60;;
16994;SDS011;8614;48.522;9.206;2023-02-21T08:27:51;8.80;;;4.60;;
16994;SDS011;8614;48.522;9.206;2023-02-21T08:30:19;7.23;;;4.73;;
16994;SDS011;8614;48.522;9.206;2023-02-21T08:32:46;6.17;;;5.57;;
16994;SDS011;8614;48.522;9.206;2023-02-21T08:35:13;6.67;;;6.13;;
16994;SDS011;8614;48.522;9.206;2023-02-21T08:37:42;7.47;;;6.70;;
16994;SDS011;8614;48.522;9.206;2023-02-21T08:40:10;6.97;;;5.67;;
16994;SDS011;8614;48.522;9.206;2023-02-21T08:42:39;10.40;;;9.60;;
16994;SDS011;8614;48.522;9.206;2023-02-21T08:45:07;11.80;;;10.87;;
16994;SDS011;8614;48.522;9.206;2023-02-21T08:47:37;11.00;;;10.20;;
16994;SDS011;8614;48.522;9.206;2023-02-21T08:50:04;5.37;;;4.87;;
16994;SDS011;8614;48.522;9.206;2023-02-21T08:52:31;4.33;;;3.73;;
16994;SDS011;8614;48.522;9.206;2023-02-21T08:54:58;6.97;;;4.20;;
16994;SDS011;8614;48.522;9.206;2023-02-21T08:57:25;7.37;;;4.33;;
16994;SDS011;8614;48.522;9.206;2023-02-21T08:59:53;5.23;;;4.60;;
16994;SDS011;8614;48.522;9.206;2023-02-21T09:02:21;9.80;;;8.90;;
16994;SDS011;8614;48.522;9.206;2023-02-21T09:04:50;11.13;;;9.80;;
16994;SDS011;8614;48.522;9.206;2023-02-21T09:07:18;8.60;;;7.80;;
16994;SDS011;8614;48.522;9.206;2023-02-21T09:09:46;9.90;;;9.30;;
16994;SDS011;8614;48.522;9.206;2023-02-21T09:12:13;9.63;;;8.87;;
16994;SDS011;8614;48.522;9.206;2023-02-21T09:14:41;9.03;;;8.37;;
16994;SDS011;8614;48.522;9.206;2023-02-21T09:17:11;8.80;;;7.93;;
16994;SDS011;8614;48.522;9.206;2023-02-21T09:19:38;8.77;;;8.00;;
16994;SDS011;8614;48.522;9.206;2023-02-21T09:22:05;8.60;;;7.80;;
16994;SDS011;8614;48.522;9.206;2023-02-21T09:24:33;8.90;;;8.07;;
16994;SDS011;8614;48.522;9.206;2023-02-21T09:27:00;12.33;;;8.37;;
16994;SDS011;8614;48.522;9.206;2023-02-21T09:29:28;11.00;;;7.90;;
16994;SDS011;8614;48.522;9.206;2023-02-21T09:31:56;9.03;;;7.50;;
16994;SDS011;8614;48.522;9.206;2023-02-21T09:34:25;8.27;;;6.33;;
16994;SDS011;8614;48.522;9.206;2023-02-21T09:36:52;6.77;;;6.10;;
16994;SDS011;8614;48.522;9.206;2023-02-21T09:39:20;8.67;;;7.90;;
16994;SDS011;8614;48.522;9.206;2023-02-21T09:41:47;7.13;;;6.53;;
16994;SDS011;8614;48.522;9.206;2023-02-21T09:44:18;9.03;;;8.33;;
16994;SDS011;8614;48.522;9.206;2023-02-21T09:46:48;10.40;;;9.50;;
16994;SDS011;8614;48.522;9.206;2023-02-21T09:49:19;10.30;;;9.50;;
16994;SDS011;8614;48.522;9.206;2023-02-21T09:51:51;9.60;;;8.95;;
16994;SDS011;8614;48.522;9.206;2023-02-21T09:54:22;10.40;;;9.70;;
16994;SDS011;8614;48.522;9.206;2023-02-21T09:56:53;5.30;;;4.53;;
16994;SDS011;8614;48.522;9.206;2023-02-21T09:59:22;5.57;;;5.07;;
16994;SDS011;8614;48.522;9.206;2023-02-21T10:01:59;5.37;;;4.83;;
16994;SDS011;8614;48.522;9.206;2023-02-21T10:04:41;6.13;;;5.53;;
16994;SDS011;8614;48.522;9.206;2023-02-21T10:07:24;9.33;;;8.57;;
16994;SDS011;8614;48.522;9.206;2023-02-21T10:10:00;10.20;;;9.50;;
16994;SDS011;8614;48.522;9.206;2023-02-21T10:12:31;9.53;;;8.83;;
16994;SDS011;8614;48.522;9.206;2023-02-21T10:17:58;9.80;;;8.90;;
16994;SDS011;8614;48.522;9.206;2023-02-21T10:20:31;9.70;;;9.00;;
16994;SDS011;8614;48.522;9.206;2023-02-21T10:23:02;10.27;;;9.40;;
16994;SDS011;8614;48.522;9.206;2023-02-21T10:25:40;9.90;;;9.20;;
16994;SDS011;8614;48.522;9.206;2023-02-21T10:28:10;9.60;;;8.90;;
16994;SDS011;8614;48.522;9.206;2023-02-21T10:30:44;8.57;;;7.90;;
16994;SDS011;8614;48.522;9.206;2023-02-21T10:33:12;9.00;;;8.30;;
16994;SDS011;8614;48.522;9.206;2023-02-21T10:35:39;9.10;;;8.48;;
16994;SDS011;8614;48.522;9.206;2023-02-21T10:38:08;9.00;;;8.30;;
16994;SDS011;8614;48.522;9.206;2023-02-21T10:40:39;9.13;;;8.53;;
16994;SDS011;8614;48.522;9.206;2023-02-21T10:43:08;9.03;;;8.33;;
16994;SDS011;8614;48.522;9.206;2023-02-21T10:45:39;9.07;;;8.43;;
16994;SDS011;8614;48.522;9.206;2023-02-21T10:48:10;9.00;;;8.30;;
16994;SDS011;8614;48.522;9.206;2023-02-21T10:50:39;9.13;;;8.33;;
16994;SDS011;8614;48.522;9.206;2023-02-21T10:53:21;8.80;;;8.20;;
16994;SDS011;8614;48.522;9.206;2023-02-21T10:56:06;9.40;;;8.70;;
16994;SDS011;8614;48.522;9.206;2023-02-21T10:58:55;9.10;;;8.50;;
16994;SDS011;8614;48.522;9.206;2023-02-21T11:01:33;9.60;;;8.63;;
16994;SDS011;8614;48.522;9.206;2023-02-21T11:04:04;8.83;;;8.23;;
16994;SDS011;8614;48.522;9.206;2023-02-21T11:06:33;7.70;;;7.20;;
16994;SDS011;8614;48.522;9.206;2023-02-21T11:09:04;8.40;;;7.80;;
16994;SDS011;8614;48.522;9.206;2023-02-21T11:11:58;8.10;;;7.60;;
16994;SDS011;8614;48.522;9.206;2023-02-21T11:14:28;8.40;;;7.90;;
16994;SDS011;8614;48.522;9.206;2023-02-21T11:17:11;8.20;;;7.60;;
16994;SDS011;8614;48.522;9.206;2023-02-21T11:19:41;8.70;;;8.10;;
16994;SDS011;8614;48.522;9.206;2023-02-21T11:22:10;7.80;;;7.30;;
16994;SDS011;8614;48.522;9.206;2023-02-21T11:24:48;8.00;;;7.50;;
16994;SDS011;8614;48.522;9.206;2023-02-21T11:27:18;7.40;;;7.00;;
16994;SDS011;8614;48.522;9.206;2023-02-21T11:29:46;7.60;;;7.20;;
16994;SDS011;8614;48.522;9.206;2023-02-21T11:32:19;8.10;;;7.60;;
16994;SDS011;8614;48.522;9.206;2023-02-21T11:34:49;7.77;;;7.17;;
16994;SDS011;8614;48.522;9.206;2023-02-21T11:37:16;7.73;;;7.13;;
16994;SDS011;8614;48.522;9.206;2023-02-21T11:39:50;7.70;;;7.10;;
16994;SDS011;8614;48.522;9.206;2023-02-21T11:42:24;7.80;;;7.30;;
16994;SDS011;8614;48.522;9.206;2023-02-21T11:45:03;8.60;;;8.00;;
16994;SDS011;8614;48.522;9.206;2023-02-21T11:47:38;8.20;;;7.60;;
16994;SDS011;8614;48.522;9.206;2023-02-21T11:50:11;7.47;;;7.07;;
16994;SDS011;8614;48.522;9.206;2023-02-21T11:52:45;7.93;;;7.43;;
16994;SDS011;8614;48.522;9.206;2023-02-21T11:55:19;7.70;;;7.20;;
16994;SDS011;8614;48.522;9.206;2023-02-21T11:57:49;7.63;;;7.20;;
16994;SDS011;8614;48.522;9.206;2023-02-21T12:00:24;8.10;;;7.60;;
16994;SDS011;8614;48.522;9.206;2023-02-21T12:02:59;8.33;;;7.73;;
16994;SDS011;8614;48.522;9.206;2023-02-21T12:05:39;8.03;;;7.30;;
16994;SDS011;8614;48.522;9.206;2023-02-21T12:08:17;7.40;;;7.00;;
16994;SDS011;8614;48.522;9.206;2023-02-21T12:11:08;7.20;;;6.80;;
16994;SDS011;8614;48.522;9.206;2023-02-21T12:13:45;7.10;;;6.70;;
16994;SDS011;8614;48.522;9.206;2023-02-21T12:16:21;7.60;;;7.20;;
16994;SDS011;8614;48.522;9.206;2023-02-21T12:19:03;7.17;;;6.77;;
16994;SDS011;8614;48.522;9.206;2023-02-21T12:24:40;7.03;;;6.63;;
16994;SDS011;8614;48.522;9.206;2023-02-21T12:27:20;7.00;;;6.60;;
16994;SDS011;8614;48.522;9.206;2023-02-21T12:30:03;7.13;;;6.73;;
16994;SDS011;8614;48.522;9.206;2023-02-21T12:32:43;7.57;;;7.07;;
16994;SDS011;8614;48.522;9.206;2023-02-21T12:38:06;7.03;;;6.70;;
16994;SDS011;8614;48.522;9.206;2023-02-21T12:40:36;7.23;;;6.73;;
16994;SDS011;8614;48.522;9.206;2023-02-21T12:43:24;7.23;;;6.83;;
16994;SDS011;8614;48.522;9.206;2023-02-21T12:46:05;7.30;;;6.90;;
16994;SDS011;8614;48.522;9.206;2023-02-21T12:48:38;7.13;;;6.63;;
16994;SDS011;8614;48.522;9.206;2023-02-21T12:51:09;7.00;;;6.50;;
16994;SDS011;8614;48.522;9.206;2023-02-21T12:53:42;6.90;;;6.50;;
16994;SDS011;8614;48.522;9.206;2023-02-21T12:56:15;6.90;;;6.50;;
16994;SDS011;8614;48.522;9.206;2023-02-21T12:58:48;7.07;;;6.50;;
16994;SDS011;8614;48.522;9.206;2023-02-21T13:01:21;7.10;;;6.70;;
16994;SDS011;8614;48.522;9.206;2023-02-21T13:03:53;6.97;;;6.60;;
16994;SDS011;8614;48.522;9.206;2023-02-21T13:06:28;7.07;;;6.67;;
16994;SDS011;8614;48.522;9.206;2023-02-21T13:09:05;7.50;;;7.00;;
16994;SDS011;8614;48.522;9.206;2023-02-21T13:11:41;7.40;;;6.90;;
16994;SDS011;8614;48.522;9.206;2023-02-21T13:14:15;7.10;;;6.70;;
16994;SDS011;8614;48.522;9.206;2023-02-21T13:16:45;8.20;;;7.50;;
16994;SDS011;8614;48.522;9.206;2023-02-21T13:19:13;8.10;;;7.30;;
16994;SDS011;8614;48.522;9.206;2023-02-21T13:21:50;7.60;;;7.00;;
16994;SDS011;8614;48.522;9.206;2023-02-21T13:24:26;7.07;;;6.67;;
16994;SDS011;8614;48.522;9.206;2023-02-21T13:27:22;7.23;;;6.60;;
16994;SDS011;8614;48.522;9.206;2023-02-21T13:30:12;7.30;;;6.80;;
16994;SDS011;8614;48.522;9.206;2023-02-21T13:32:48;7.93;;;7.20;;
16994;SDS011;8614;48.522;9.206;2023-02-21T13:35:18;7.83;;;7.33;;
16994;SDS011;8614;48.522;9.206;2023-02-21T13:37:49;6.90;;;6.50;;
16994;SDS011;8614;48.522;9.206;2023-02-21T13:40:20;6.60;;;6.30;;
16994;SDS011;8614;48.522;9.206;2023-02-21T13:42:57;6.73;;;6.43;;
16994;SDS011;8614;48.522;9.206;2023-02-21T13:45:28;7.27;;;6.77;;
16994;SDS011;8614;48.522;9.206;2023-02-21T13:48:18;6.90;;;6.50;;
16994;SDS011;8614;48.522;9.206;2023-02-21T13:50:48;7.00;;;6.60;;
16994;SDS011;8614;48.522;9.206;2023-02-21T13:53:16;6.90;;;6.60;;
16994;SDS011;8614;48.522;9.206;2023-02-21T13:58:50;6.90;;;6.50;;
16994;SDS011;8614;48.522;9.206;2023-02-21T14:10:26;6.47;;;6.17;;
16994;SDS011;8614;48.522;9.206;2023-02-21T14:12:59;6.80;;;6.40;;
16994;SDS011;8614;48.522;9.206;2023-02-21T14:15:36;6.87;;;6.37;;
16994;SDS011;8614;48.522;9.206;2023-02-21T14:18:15;6.77;;;6.37;;
16994;SDS011;8614;48.522;9.206;2023-02-21T14:20:47;6.90;;;6.50;;
16994;SDS011;8614;48.522;9.206;2023-02-21T14:23:16;6.80;;;6.30;;
16994;SDS011;8614;48.522;9.206;2023-02-21T14:25:53;6.63;;;6.27;;
16994;SDS011;8614;48.522;9.206;2023-02-21T14:31:14;7.37;;;6.80;;
16994;SDS011;8614;48.522;9.206;2023-02-21T14:34:12;7.27;;;6.60;;
16994;SDS011;8614;48.522;9.206;2023-02-21T14:36:42;7.70;;;7.17;;
16994;SDS011;8614;48.522;9.206;2023-02-21T14:39:11;6.63;;;6.33;;
16994;SDS011;8614;48.522;9.206;2023-02-21T14:41:42;6.87;;;6.47;;
16994;SDS011;8614;48.522;9.206;2023-02-21T14:44:22;7.10;;;6.70;;
16994;SDS011;8614;48.522;9.206;2023-02-21T14:47:04;6.70;;;6.30;;
16994;SDS011;8614;48.522;9.206;2023-02-21T14:52:51;6.50;;;6.00;;
16994;SDS011;8614;48.522;9.206;2023-02-21T14:55:43;6.50;;;6.10;;
16994;SDS011;8614;48.522;9.206;2023-02-21T14:58:34;6.50;;;6.10;;
16994;SDS011;8614;48.522;9.206;2023-02-21T15:01:32;6.70;;;6.30;;
16994;SDS011;8614;48.522;9.206;2023-02-21T15:04:13;6.83;;;6.43;;
16994;SDS011;8614;48.522;9.206;2023-02-21T15:09:33;6.83;;;6.43;;
16994;SDS011;8614;48.522;9.206;2023-02-21T15:12:01;6.57;;;6.20;;
16994;SDS011;8614;48.522;9.206;2023-02-21T15:14:33;6.70;;;6.20;;
16994;SDS011;8614;48.522;9.206;2023-02-21T15:17:09;7.00;;;6.50;;
16994;SDS011;8614;48.522;9.206;2023-02-21T15:19:38;6.83;;;6.43;;
16994;SDS011;8614;48.522;9.206;2023-02-21T15:22:16;6.90;;;6.50;;
16994;SDS011;8614;48.522;9.206;2023-02-21T15:28:00;7.20;;;6.70;;
16994;SDS011;8614;48.522;9.206;2023-02-21T15:30:30;6.90;;;6.40;;
16994;SDS011;8614;48.522;9.206;2023-02-21T15:33:02;8.27;;;7.70;;
16994;SDS011;8614;48.522;9.206;2023-02-21T15:35:33;8.00;;;7.50;;
16994;SDS011;8614;48.522;9.206;2023-02-21T15:38:05;8.20;;;7.70;;
16994;SDS011;8614;48.522;9.206;2023-02-21T15:40:38;8.37;;;7.73;;
16994;SDS011;8614;48.522;9.206;2023-02-21T15:43:05;7.03;;;6.63;;
16994;SDS011;8614;48.522;9.206;2023-02-21T15:45:43;7.20;;;6.70;;
16994;SDS011;8614;48.522;9.206;2023-02-21T15:48:12;8.03;;;7.43;;
16994;SDS011;8614;48.522;9.206;2023-02-21T15:50:40;8.27;;;7.57;;
16994;SDS011;8614;48.522;9.206;2023-02-21T15:53:14;8.17;;;7.57;;
16994;SDS011;8614;48.522;9.206;2023-02-21T15:55:43;7.67;;;7.20;;
16994;SDS011;8614;48.522;9.206;2023-02-21T15:58:12;7.50;;;7.00;;
16994;SDS011;8614;48.522;9.206;2023-02-21T16:00:42;7.37;;;6.87;;
16994;SDS011;8614;48.522;9.206;2023-02-21T16:03:26;9.10;;;8.40;;
16994;SDS011;8614;48.522;9.206;2023-02-21T16:06:06;3.87;;;3.50;;
16994;SDS011;8614;48.522;9.206;2023-02-21T16:11:49;8.60;;;8.10;;
16994;SDS011;8614;48.522;9.206;2023-02-21T16:14:19;5.33;;;4.93;;
16994;SDS011;8614;48.522;9.206;2023-02-21T16:16:49;7.40;;;6.90;;
16994;SDS011;8614;48.522;9.206;2023-02-21T16:19:20;7.00;;;6.60;;
16994;SDS011;8614;48.522;9.206;2023-02-21T16:21:48;7.03;;;6.63;;
16994;SDS011;8614;48.522;9.206;2023-02-21T16:24:25;7.60;;;7.10;;
16994;SDS011;8614;48.522;9.206;2023-02-21T16:27:04;8.00;;;7.50;;
16994;SDS011;8614;48.522;9.206;2023-02-21T16:29:34;7.50;;;7.00;;
16994;SDS011;8614;48.522;9.206;2023-02-21T16:32:00;7.83;;;7.23;;
16994;SDS011;8614;48.522;9.206;2023-02-21T16:34:30;7.50;;;7.10;;
16994;SDS011;8614;48.522;9.206;2023-02-21T16:37:00;8.07;;;7.57;;
16994;SDS011;8614;48.522;9.206;2023-02-21T16:39:29;7.80;;;7.30;;
16994;SDS011;8614;48.522;9.206;2023-02-21T16:41:56;7.43;;;6.93;;
16994;SDS011;8614;48.522;9.206;2023-02-21T16:44:23;7.80;;;7.30;;
16994;SDS011;8614;48.522;9.206;2023-02-21T16:46:50;8.10;;;7.60;;
16994;SDS011;8614;48.522;9.206;2023-02-21T16:49:17;8.00;;;7.50;;
16994;SDS011;8614;48.522;9.206;2023-02-21T16:51:44;7.60;;;7.10;;
16994;SDS011;8614;48.522;9.206;2023-02-21T16:54:11;7.40;;;6.93;;
16994;SDS011;8614;48.522;9.206;2023-02-21T16:56:39;7.10;;;6.70;;
16994;SDS011;8614;48.522;9.206;2023-02-21T16:59:08;7.27;;;6.87;;
16994;SDS011;8614;48.522;9.206;2023-02-21T17:01:36;7.00;;;6.50;;
16994;SDS011;8614;48.522;9.206;2023-02-21T17:04:04;6.93;;;6.53;;
16994;SDS011;8614;48.522;9.206;2023-02-21T17:06:31;7.00;;;6.50;;
16994;SDS011;8614;48.522;9.206;2023-02-21T17:08:59;6.90;;;6.50;;
16994;SDS011;8614;48.522;9.206;2023-02-21T17:11:26;6.90;;;6.50;;
16994;SDS011;8614;48.522;9.206;2023-02-21T17:13:54;7.33;;;6.83;;
16994;SDS011;8614;48.522;9.206;2023-02-21T17:16:21;7.67;;;7.17;;
16994;SDS011;8614;48.522;9.206;2023-02-21T17:18:48;7.90;;;7.30;;
16994;SDS011;8614;48.522;9.206;2023-02-21T17:21:15;7.47;;;6.97;;
16994;SDS011;8614;48.522;9.206;2023-02-21T17:23:41;7.20;;;6.67;;
16994;SDS011;8614;48.522;9.206;2023-02-21T17:26:08;7.00;;;6.50;;
16994;SDS011;8614;48.522;9.206;2023-02-21T17:28:36;6.90;;;6.40;;
16994;SDS011;8614;48.522;9.206;2023-02-21T17:31:04;7.13;;;6.63;;
16994;SDS011;8614;48.522;9.206;2023-02-21T17:33:31;8.07;;;7.47;;
16994;SDS011;8614;48.522;9.206;2023-02-21T17:35:59;10.13;;;8.90;;
16994;SDS011;8614;48.522;9.206;2023-02-21T17:38:26;12.10;;;10.90;;
16994;SDS011;8614;48.522;9.206;2023-02-21T17:40:53;16.40;;;12.97;;
16994;SDS011;8614;48.522;9.206;2023-02-21T17:43:20;16.67;;;14.83;;
16994;SDS011;8614;48.522;9.206;2023-02-21T17:45:47;15.07;;;11.83;;
16994;SDS011;8614;48.522;9.206;2023-02-21T17:48:15;14.70;;;12.73;;
16994;SDS011;8614;48.522;9.206;2023-02-21T17:50:42;14.27;;;12.20;;
16994;SDS011;8614;48.522;9.206;2023-02-21T17:53:08;15.90;;;12.83;;
16994;SDS011;8614;48.522;9.206;2023-02-21T17:55:35;13.27;;;11.93;;
16994;SDS011;8614;48.522;9.206;2023-02-21T17:58:02;13.03;;;11.73;;
16994;SDS011;8614;48.522;9.206;2023-02-21T18:00:30;12.67;;;11.37;;
16994;SDS011;8614;48.522;9.206;2023-02-21T18:02:58;12.93;;;11.63;;
16994;SDS011;8614;48.522;9.206;2023-02-21T18:08:47;11.33;;;10.23;;
16994;SDS011;8614;48.522;9.206;2023-02-21T18:11:15;10.97;;;9.87;;
16994;SDS011;8614;48.522;9.206;2023-02-21T18:13:43;10.70;;;9.70;;
16994;SDS011;8614;48.522;9.206;2023-02-21T18:16:09;9.87;;;8.90;;
16994;SDS011;8614;48.522;9.206;2023-02-21T18:47:39;10.47;;;9.47;;
16994;SDS011;8614;48.522;9.206;2023-02-21T19:01:53;11.50;;;10.33;;
16994;SDS011;8614;48.522;9.206;2023-02-21T19:04:22;13.03;;;11.63;;
16994;SDS011;8614;48.522;9.206;2023-02-21T19:06:48;12.73;;;11.43;;
16994;SDS011;8614;48.522;9.206;2023-02-21T19:09:15;12.77;;;11.10;;
16994;SDS011;8614;48.522;9.206;2023-02-21T19:11:42;12.97;;;11.67;;
16994;SDS011;8614;48.522;9.206;2023-02-21T19:14:09;15.53;;;13.40;;
16994;SDS011;8614;48.522;9.206;2023-02-21T19:16:36;14.23;;;12.77;;
16994;SDS011;8614;48.522;9.206;2023-02-21T19:19:03;17.37;;;13.87;;
16994;SDS011;8614;48.522;9.206;2023-02-21T19:21:32;14.27;;;12.77;;
16994;SDS011;8614;48.522;9.206;2023-02-21T19:23:59;15.43;;;13.07;;
16994;SDS011;8614;48.522;9.206;2023-02-21T19:26:26;15.87;;;12.83;;
16994;SDS011;8614;48.522;9.206;2023-02-21T19:28:54;17.37;;;12.90;;
16994;SDS011;8614;48.522;9.206;2023-02-21T19:31:21;14.53;;;12.97;;